createdAt,value
2023-01-26T00:01:50.254Z,6.94
2023-01-26T00:04:18.420Z,6.99
2023-01-26T00:06:45.878Z,7.03
2023-01-26T00:09:16.517Z,7.00
2023-01-26T00:11:44.849Z,7.07
2023-01-26T00:14:12.425Z,6.84
2023-01-26T00:16:40.841Z,6.74
2023-01-26T00:19:08.877Z,6.62
2023-01-26T00:21:36.423Z,6.57
2023-01-26T00:24:04.775Z,6.58
2023-01-26T00:26:32.541Z,6.68
2023-01-26T00:29:00.699Z,6.64
2023-01-26T00:31:29.154Z,6.66
2023-01-26T00:33:57.915Z,6.82
2023-01-26T00:36:25.849Z,6.82
2023-01-26T00:38:53.340Z,6.75
2023-01-26T00:41:39.662Z,6.79
2023-01-26T00:44:07.900Z,6.84
2023-01-26T00:46:35.379Z,6.77
2023-01-26T00:49:03.249Z,6.66
2023-01-26T00:51:31.188Z,6.58
2023-01-26T00:53:58.720Z,6.56
2023-01-26T00:56:28.085Z,6.67
2023-01-26T00:58:56.128Z,6.61
2023-01-26T01:01:23.882Z,6.44
2023-01-26T01:03:52.221Z,6.46
2023-01-26T01:06:19.963Z,6.51
2023-01-26T01:08:47.605Z,6.66
2023-01-26T01:11:15.760Z,6.59
2023-01-26T01:13:43.501Z,6.62
2023-01-26T01:16:14.191Z,6.48
2023-01-26T01:18:42.009Z,6.45
2023-01-26T01:21:12.588Z,6.53
2023-01-26T01:23:40.992Z,6.59
2023-01-26T01:26:09.283Z,6.62
2023-01-26T01:28:37.042Z,6.60
2023-01-26T01:31:13.095Z,6.64
2023-01-26T01:33:42.201Z,6.60
2023-01-26T01:36:15.310Z,6.57
2023-01-26T01:38:44.894Z,6.65
2023-01-26T01:41:14.475Z,6.66
2023-01-26T01:43:42.908Z,6.68
2023-01-26T01:46:32.922Z,6.62
2023-01-26T01:49:06.176Z,6.74
2023-01-26T01:51:45.247Z,6.42
2023-01-26T01:54:17.193Z,6.44
2023-01-26T01:56:52.468Z,6.54
2023-01-26T01:59:21.583Z,6.58
2023-01-26T02:01:52.103Z,6.50
2023-01-26T02:04:22.665Z,6.50
2023-01-26T02:06:52.211Z,6.53
2023-01-26T02:09:58.254Z,6.38
2023-01-26T02:12:32.935Z,6.53
2023-01-26T02:15:01.563Z,6.54
2023-01-26T02:17:29.972Z,6.44
2023-01-26T02:20:07.628Z,6.46
2023-01-26T02:22:41.568Z,6.53
2023-01-26T02:25:36.900Z,6.55
2023-01-26T02:28:04.999Z,6.38
2023-01-26T02:30:33.628Z,6.35
2023-01-26T02:33:01.385Z,6.50
2023-01-26T02:35:29.488Z,6.46
2023-01-26T02:37:57.940Z,6.31
2023-01-26T02:40:36.440Z,6.50
2023-01-26T02:43:05.026Z,6.45
2023-01-26T02:45:34.706Z,6.53
2023-01-26T02:48:06.406Z,6.64
2023-01-26T02:50:34.770Z,6.63
2023-01-26T02:53:03.216Z,6.55
2023-01-26T02:55:31.606Z,6.49
2023-01-26T02:58:04.169Z,6.50
2023-01-26T03:00:37.404Z,6.44
2023-01-26T03:03:17.053Z,6.59
2023-01-26T03:05:44.757Z,6.45
2023-01-26T03:08:12.877Z,6.55
2023-01-26T03:10:40.475Z,6.46
2023-01-26T03:13:08.859Z,6.41
2023-01-26T03:15:54.849Z,6.52
2023-01-26T03:18:42.899Z,6.33
2023-01-26T03:21:32.456Z,6.12
2023-01-26T03:24:20.265Z,6.03
2023-01-26T03:27:07.082Z,6.20
2023-01-26T03:29:35.167Z,6.26
2023-01-26T03:32:04.642Z,6.15
2023-01-26T03:34:32.665Z,6.11
2023-01-26T03:37:00.928Z,6.05
2023-01-26T03:39:54.628Z,6.18
2023-01-26T03:42:41.449Z,6.11
2023-01-26T03:45:28.767Z,6.17
2023-01-26T03:48:29.190Z,6.27
2023-01-26T03:51:16.534Z,6.30
2023-01-26T03:54:02.665Z,6.13
2023-01-26T03:56:34.760Z,6.18
2023-01-26T03:59:16.659Z,6.31
2023-01-26T04:02:05.713Z,6.47
2023-01-26T04:04:53.409Z,6.14
2023-01-26T04:07:43.257Z,6.26
2023-01-26T04:10:11.762Z,6.18
2023-01-26T04:12:40.921Z,6.14
2023-01-26T04:15:35.716Z,6.02
2023-01-26T04:18:26.315Z,5.93
2023-01-26T04:21:14.499Z,5.89
2023-01-26T04:23:44.840Z,5.95
2023-01-26T04:26:13.798Z,6.07
2023-01-26T04:28:42.288Z,5.97
2023-01-26T04:31:10.125Z,5.85
2023-01-26T04:33:39.057Z,5.86
2023-01-26T04:36:09.285Z,5.82
2023-01-26T04:38:40.541Z,5.83
2023-01-26T04:41:08.589Z,5.74
2023-01-26T04:43:43.506Z,5.73
2023-01-26T04:46:11.624Z,5.75
2023-01-26T04:48:41.819Z,5.82
2023-01-26T04:51:20.975Z,5.68
2023-01-26T04:53:50.075Z,5.79
2023-01-26T04:56:26.100Z,5.70
2023-01-26T04:58:55.399Z,5.79
2023-01-26T05:01:24.612Z,5.75
2023-01-26T05:03:52.912Z,5.75
2023-01-26T05:06:21.893Z,5.74
2023-01-26T05:08:50.992Z,5.81
2023-01-26T05:11:19.384Z,5.75
2023-01-26T05:13:56.190Z,5.89
2023-01-26T05:16:36.810Z,5.74
2023-01-26T05:19:04.332Z,5.84
2023-01-26T05:21:52.149Z,5.98
2023-01-26T05:24:20.369Z,6.03
2023-01-26T05:27:30.141Z,6.02
2023-01-26T05:30:00.809Z,5.90
2023-01-26T05:32:31.476Z,5.94
2023-01-26T05:34:59.089Z,5.99
2023-01-26T05:37:29.145Z,5.97
2023-01-26T05:39:57.727Z,5.82
2023-01-26T05:42:25.919Z,5.89
2023-01-26T05:45:08.387Z,5.78
2023-01-26T05:47:37.216Z,5.77
2023-01-26T05:50:05.898Z,5.97
2023-01-26T05:52:34.360Z,5.82
2023-01-26T05:55:03.023Z,6.05
2023-01-26T05:57:30.646Z,6.06
2023-01-26T06:00:04.967Z,6.27
2023-01-26T06:02:41.634Z,6.21
2023-01-26T06:05:12.993Z,6.05
2023-01-26T06:07:43.127Z,5.91
2023-01-26T06:10:26.489Z,6.13
2023-01-26T06:13:17.803Z,6.10
2023-01-26T06:15:49.443Z,6.26
2023-01-26T06:18:17.665Z,6.30
2023-01-26T06:20:51.057Z,6.37
2023-01-26T06:23:19.105Z,6.26
2023-01-26T06:25:48.011Z,6.44
2023-01-26T06:28:15.941Z,6.40
2023-01-26T06:30:44.982Z,6.31
2023-01-26T06:33:13.134Z,6.14
2023-01-26T06:35:40.747Z,6.21
2023-01-26T06:38:12.392Z,6.33
2023-01-26T06:40:40.137Z,6.40
2023-01-26T06:43:07.753Z,6.40
2023-01-26T06:45:36.339Z,6.32
2023-01-26T06:48:04.048Z,6.39
2023-01-26T06:50:33.081Z,6.23
2023-01-26T06:53:04.100Z,6.45
2023-01-26T06:55:43.594Z,6.35
2023-01-26T06:58:31.816Z,6.42
2023-01-26T07:01:15.170Z,6.58
2023-01-26T07:03:42.699Z,6.78
2023-01-26T07:06:13.823Z,6.84
2023-01-26T07:08:42.069Z,6.82
2023-01-26T07:11:10.914Z,6.66
2023-01-26T07:13:38.976Z,6.68
2023-01-26T07:16:17.908Z,6.71
2023-01-26T07:18:45.863Z,6.83
2023-01-26T07:21:18.471Z,6.86
2023-01-26T07:23:47.221Z,6.77
2023-01-26T07:26:15.458Z,6.94
2023-01-26T07:28:43.994Z,7.04
2023-01-26T07:31:12.944Z,7.08
2023-01-26T07:33:40.576Z,7.29
2023-01-26T07:36:08.512Z,7.30
2023-01-26T07:38:36.061Z,7.31
2023-01-26T07:41:09.278Z,7.40
2023-01-26T07:43:38.222Z,7.36
2023-01-26T07:46:10.897Z,7.46
2023-01-26T07:48:40.825Z,7.62
2023-01-26T07:51:11.582Z,7.68
2023-01-26T07:53:40.059Z,7.65
2023-01-26T07:56:14.110Z,7.69
2023-01-26T07:58:42.796Z,7.79
2023-01-26T08:01:13.250Z,7.68
2023-01-26T08:03:42.098Z,7.58
2023-01-26T08:06:12.823Z,7.28
2023-01-26T08:08:43.977Z,7.61
2023-01-26T08:11:12.255Z,7.72
2023-01-26T08:13:40.282Z,7.90
2023-01-26T08:16:12.062Z,7.84
2023-01-26T08:18:44.406Z,7.84
2023-01-26T08:21:14.444Z,8.02
2023-01-26T08:23:42.587Z,8.01
2023-01-26T08:26:13.303Z,8.14
2023-01-26T08:28:41.626Z,8.39
2023-01-26T08:31:12.290Z,8.38
2023-01-26T08:33:44.112Z,8.32
2023-01-26T08:36:15.098Z,8.49
2023-01-26T08:38:43.898Z,8.57
2023-01-26T08:41:12.412Z,8.48
2023-01-26T08:43:40.545Z,8.33
2023-01-26T08:46:08.593Z,8.14
2023-01-26T08:48:37.410Z,8.10
2023-01-26T08:51:07.296Z,8.01
2023-01-26T08:53:36.303Z,8.23
2023-01-26T08:56:06.193Z,8.48
2023-01-26T08:58:34.616Z,8.46
2023-01-26T09:01:11.805Z,8.51
2023-01-26T09:03:40.189Z,9.37
2023-01-26T09:06:09.930Z,9.64
2023-01-26T09:08:37.839Z,9.22
2023-01-26T09:11:06.850Z,9.49
2023-01-26T09:13:37.147Z,9.86
2023-01-26T09:16:12.592Z,10.18
2023-01-26T09:18:40.294Z,10.03
2023-01-26T09:21:09.400Z,10.28
2023-01-26T09:23:38.773Z,10.71
2023-01-26T09:26:06.703Z,11.86
2023-01-26T09:28:34.204Z,12.82
2023-01-26T09:31:06.925Z,13.81
2023-01-26T09:33:34.913Z,14.76
2023-01-26T09:36:07.742Z,14.78
2023-01-26T09:38:35.356Z,15.29
2023-01-26T09:41:15.237Z,15.77
2023-01-26T09:43:51.917Z,15.90
2023-01-26T09:46:59.625Z,15.33
2023-01-26T09:49:51.593Z,15.23
2023-01-26T09:52:57.187Z,15.26
2023-01-26T09:55:25.464Z,14.45
2023-01-26T09:57:55.969Z,13.40
2023-01-26T10:00:30.363Z,13.86
2023-01-26T10:03:28.589Z,14.27
2023-01-26T10:06:07.868Z,15.09
2023-01-26T10:09:07.090Z,13.40
2023-01-26T10:11:39.547Z,13.32
2023-01-26T10:14:16.375Z,13.47
2023-01-26T10:16:48.843Z,13.18
2023-01-26T10:19:36.387Z,13.57
2023-01-26T10:22:12.304Z,14.48
2023-01-26T10:24:39.925Z,13.86
2023-01-26T10:27:15.518Z,14.27
2023-01-26T10:29:43.439Z,14.34
2023-01-26T10:32:15.098Z,13.42
2023-01-26T10:34:44.443Z,12.32
2023-01-26T10:37:21.711Z,11.67
2023-01-26T10:40:04.548Z,11.18
2023-01-26T10:42:34.361Z,11.31
2023-01-26T10:45:06.690Z,11.44
2023-01-26T10:47:34.523Z,11.43
2023-01-26T10:50:23.263Z,11.09
2023-01-26T10:53:02.257Z,10.90
2023-01-26T10:55:31.624Z,10.91
2023-01-26T10:58:00.545Z,11.47
2023-01-26T11:00:36.556Z,12.20
2023-01-26T11:03:20.144Z,13.22
2023-01-26T11:06:06.401Z,13.50
2023-01-26T11:08:37.234Z,13.34
2023-01-26T11:11:10.576Z,13.24
2023-01-26T11:13:38.626Z,12.80
2023-01-26T11:16:23.010Z,12.54
2023-01-26T11:19:00.606Z,12.00
2023-01-26T11:21:39.904Z,11.99
2023-01-26T11:24:17.901Z,11.66
2023-01-26T11:27:05.743Z,11.83
2023-01-26T11:29:43.012Z,11.68
2023-01-26T11:32:35.302Z,11.63
2023-01-26T11:35:18.122Z,11.69
2023-01-26T11:37:48.469Z,11.95
2023-01-26T11:40:51.518Z,12.09
2023-01-26T11:43:54.323Z,12.16
2023-01-26T11:46:37.359Z,11.87
2023-01-26T11:49:20.134Z,12.02
2023-01-26T11:52:14.062Z,11.67
2023-01-26T11:55:03.464Z,11.87
2023-01-26T11:58:12.462Z,11.47
2023-01-26T12:00:48.294Z,11.44
2023-01-26T12:03:25.883Z,11.79
2023-01-26T12:06:03.304Z,11.21
2023-01-26T12:08:42.397Z,11.59
2023-01-26T12:11:24.323Z,11.64
2023-01-26T12:14:08.315Z,11.54
2023-01-26T12:16:48.191Z,11.71
2023-01-26T12:19:25.828Z,11.91
2023-01-26T12:21:57.419Z,11.59
2023-01-26T12:25:17.495Z,11.68
2023-01-26T12:27:44.361Z,12.20
2023-01-26T12:30:49.843Z,11.95
2023-01-26T12:33:17.726Z,11.91
2023-01-26T12:35:57.265Z,12.47
2023-01-26T12:38:31.409Z,12.15
2023-01-26T12:41:13.459Z,12.21
2023-01-26T12:44:17.132Z,12.69
2023-01-26T12:46:50.726Z,12.59
2023-01-26T12:49:26.488Z,11.99
2023-01-26T12:52:06.529Z,11.63
2023-01-26T12:55:03.698Z,12.11
2023-01-26T12:57:39.147Z,12.35
2023-01-26T13:00:19.113Z,12.22
2023-01-26T13:02:51.236Z,11.96
2023-01-26T13:05:29.393Z,11.40
2023-01-26T13:07:57.899Z,11.22
2023-01-26T13:10:28.140Z,11.35
2023-01-26T13:13:17.154Z,11.37
2023-01-26T13:15:45.016Z,12.47
2023-01-26T13:18:17.679Z,13.80
2023-01-26T13:20:48.501Z,14.76
2023-01-26T13:23:28.510Z,15.13
2023-01-26T13:26:16.167Z,16.38
2023-01-26T13:28:45.899Z,16.89
2023-01-26T13:31:14.120Z,17.60
2023-01-26T13:33:42.163Z,17.81
2023-01-26T13:36:18.696Z,16.50
2023-01-26T13:38:58.774Z,15.40
2023-01-26T13:41:26.342Z,14.68
2023-01-26T13:44:45.538Z,13.55
2023-01-26T13:47:24.917Z,11.65
2023-01-26T13:49:52.876Z,11.85
2023-01-26T13:52:23.003Z,11.66
2023-01-26T13:54:53.727Z,11.46
2023-01-26T13:57:30.019Z,11.43
2023-01-26T14:00:01.115Z,11.16
2023-01-26T14:02:32.145Z,11.21
2023-01-26T14:05:01.654Z,11.25
2023-01-26T14:07:41.788Z,11.11
2023-01-26T14:10:18.009Z,10.68
2023-01-26T14:13:03.795Z,10.28
2023-01-26T14:15:33.182Z,10.41
2023-01-26T14:18:03.373Z,10.55
2023-01-26T14:20:33.445Z,10.80
2023-01-26T14:23:06.983Z,10.34
2023-01-26T14:25:34.885Z,9.69
2023-01-26T14:28:03.654Z,9.79
2023-01-26T14:30:34.407Z,10.30
2023-01-26T14:33:12.210Z,9.86
2023-01-26T14:35:40.315Z,9.85
2023-01-26T14:38:11.947Z,9.74
2023-01-26T14:40:50.321Z,9.49
2023-01-26T14:43:19.144Z,9.51
2023-01-26T14:46:00.762Z,9.69
2023-01-26T14:48:46.078Z,9.76
2023-01-26T14:51:20.580Z,9.92
2023-01-26T14:53:51.106Z,10.09
2023-01-26T14:56:26.077Z,10.20
2023-01-26T14:58:55.205Z,10.38
2023-01-26T15:01:25.261Z,9.65
2023-01-26T15:04:09.283Z,10.43
2023-01-26T15:06:37.085Z,11.13
2023-01-26T15:09:20.397Z,10.48
2023-01-26T15:12:12.524Z,9.99
2023-01-26T15:14:46.346Z,9.97
2023-01-26T15:17:29.715Z,9.54
2023-01-26T15:19:57.545Z,9.74
2023-01-26T15:22:27.159Z,9.58
2023-01-26T15:25:19.260Z,9.63
2023-01-26T15:27:58.541Z,9.20
2023-01-26T15:30:29.858Z,9.33
2023-01-26T15:32:57.886Z,9.33
2023-01-26T15:35:32.599Z,9.25
2023-01-26T15:38:10.984Z,9.13
2023-01-26T15:40:39.851Z,8.93
2023-01-26T15:43:17.603Z,8.79
2023-01-26T15:45:57.874Z,8.87
2023-01-26T15:48:26.862Z,8.89
2023-01-26T15:50:55.018Z,8.60
2023-01-26T15:53:23.054Z,8.77
2023-01-26T15:55:56.370Z,8.74
2023-01-26T15:58:24.790Z,8.78
2023-01-26T16:00:53.668Z,8.65
2023-01-26T16:03:22.546Z,8.89
2023-01-26T16:05:50.458Z,8.84
2023-01-26T16:08:19.103Z,8.65
2023-01-26T16:10:47.324Z,8.63
2023-01-26T16:13:18.047Z,8.80
2023-01-26T16:15:51.298Z,8.71
2023-01-26T16:18:19.660Z,8.71
2023-01-26T16:20:48.890Z,8.72
2023-01-26T16:23:24.846Z,8.80
2023-01-26T16:25:52.504Z,8.78
2023-01-26T16:28:21.001Z,8.75
2023-01-26T16:30:52.992Z,8.90
2023-01-26T16:33:21.472Z,8.86
2023-01-26T16:35:49.471Z,8.90
2023-01-26T16:38:17.165Z,8.89
2023-01-26T16:40:47.760Z,8.82
2023-01-26T16:43:23.353Z,8.86
2023-01-26T16:45:52.860Z,8.91
2023-01-26T16:48:21.671Z,8.86
2023-01-26T16:50:52.818Z,8.77
2023-01-26T16:53:23.506Z,8.88
2023-01-26T16:55:51.956Z,8.66
2023-01-26T16:58:21.601Z,8.66
2023-01-26T17:00:49.621Z,8.83
2023-01-26T17:03:17.309Z,8.84
2023-01-26T17:05:45.440Z,8.73
2023-01-26T17:08:13.090Z,8.73
2023-01-26T17:10:55.455Z,8.74
2023-01-26T17:13:27.795Z,8.84
2023-01-26T17:15:57.247Z,8.78
2023-01-26T17:18:25.815Z,8.79
2023-01-26T17:20:53.828Z,8.87
2023-01-26T17:23:21.534Z,8.80
2023-01-26T17:25:49.167Z,8.78
2023-01-26T17:28:16.648Z,8.76
2023-01-26T17:30:44.962Z,8.74
2023-01-26T17:33:12.937Z,8.55
2023-01-26T17:35:41.617Z,8.50
2023-01-26T17:38:09.940Z,8.25
2023-01-26T17:40:38.242Z,8.45
2023-01-26T17:43:05.795Z,7.91
2023-01-26T17:45:33.442Z,8.12
2023-01-26T17:48:01.453Z,8.20
2023-01-26T17:50:29.096Z,8.31
2023-01-26T17:52:56.619Z,8.54
2023-01-26T17:55:24.140Z,8.43
2023-01-26T17:57:52.034Z,8.42
2023-01-26T18:00:20.605Z,8.47
2023-01-26T18:02:48.144Z,8.51
2023-01-26T18:05:15.807Z,8.49
2023-01-26T18:07:43.363Z,8.57
2023-01-26T18:10:12.127Z,8.53
2023-01-26T18:12:39.691Z,8.45
2023-01-26T18:15:07.609Z,8.39
2023-01-26T18:17:36.733Z,8.38
2023-01-26T18:20:05.620Z,8.39
2023-01-26T18:22:33.625Z,8.45
2023-01-26T18:25:01.265Z,8.47
2023-01-26T18:27:29.155Z,8.38
2023-01-26T18:29:57.075Z,8.35
2023-01-26T18:32:25.002Z,8.26
2023-01-26T18:34:53.952Z,7.96
2023-01-26T18:37:21.551Z,8.06
2023-01-26T18:39:49.140Z,8.11
2023-01-26T18:42:16.877Z,8.15
2023-01-26T18:44:44.416Z,8.00
2023-01-26T18:47:12.248Z,7.77
2023-01-26T18:49:39.721Z,7.76
2023-01-26T18:52:07.617Z,7.97
2023-01-26T18:54:35.269Z,7.78
2023-01-26T18:57:03.091Z,7.79
2023-01-26T18:59:31.038Z,7.79
2023-01-26T19:02:00.432Z,8.03
2023-01-26T19:04:28.024Z,7.89
2023-01-26T19:06:55.500Z,7.99
2023-01-26T19:09:24.347Z,7.88
2023-01-26T19:11:51.894Z,7.83
2023-01-26T19:14:19.423Z,7.76
2023-01-26T19:16:49.228Z,7.65
2023-01-26T19:19:16.751Z,7.62
2023-01-26T19:21:44.336Z,7.72
2023-01-26T19:24:12.380Z,7.98
2023-01-26T19:26:40.717Z,7.72
2023-01-26T19:29:09.343Z,7.66
2023-01-26T19:31:38.037Z,7.68
2023-01-26T19:34:08.338Z,7.65
2023-01-26T19:36:36.804Z,7.55
2023-01-26T19:39:05.505Z,7.71
2023-01-26T19:41:34.350Z,7.63
2023-01-26T19:44:02.049Z,7.61
2023-01-26T19:46:29.735Z,7.37
2023-01-26T19:48:57.740Z,7.67
2023-01-26T19:51:26.800Z,7.72
2023-01-26T19:53:57.058Z,7.73
2023-01-26T19:56:33.419Z,7.70
2023-01-26T19:59:04.719Z,7.69
2023-01-26T20:01:32.942Z,7.54
2023-01-26T20:04:04.051Z,7.57
2023-01-26T20:06:33.919Z,7.46
2023-01-26T20:09:03.917Z,7.59
2023-01-26T20:11:31.918Z,7.54
2023-01-26T20:14:08.845Z,7.77
2023-01-26T20:16:36.869Z,7.46
2023-01-26T20:19:05.138Z,7.72
2023-01-26T20:21:34.209Z,7.62
2023-01-26T20:24:06.755Z,7.48
2023-01-26T20:26:36.043Z,7.73
2023-01-26T20:29:05.122Z,7.83
2023-01-26T20:31:33.237Z,7.80
2023-01-26T20:34:03.134Z,7.66
2023-01-26T20:36:31.855Z,7.68
2023-01-26T20:39:00.568Z,7.65
2023-01-26T20:41:32.081Z,7.49
2023-01-26T20:44:03.447Z,7.60
2023-01-26T20:46:35.093Z,7.35
2023-01-26T20:49:03.682Z,7.34
2023-01-26T20:51:35.837Z,7.34
2023-01-26T20:54:08.893Z,7.57
2023-01-26T20:56:38.316Z,7.61
2023-01-26T20:59:07.324Z,7.51
2023-01-26T21:01:36.572Z,7.35
2023-01-26T21:04:05.748Z,7.40
2023-01-26T21:06:34.125Z,7.47
2023-01-26T21:09:02.346Z,7.57
2023-01-26T21:11:31.501Z,7.65
2023-01-26T21:14:01.779Z,7.52
2023-01-26T21:16:32.054Z,7.46
2023-01-26T21:18:59.806Z,7.41
2023-01-26T21:21:27.535Z,7.38
2023-01-26T21:23:55.160Z,7.36
2023-01-26T21:26:25.825Z,7.40
2023-01-26T21:28:56.139Z,7.40
2023-01-26T21:31:26.505Z,7.21
2023-01-26T21:33:54.926Z,7.29
2023-01-26T21:36:25.669Z,7.42
2023-01-26T21:38:56.401Z,7.40
2023-01-26T21:41:47.671Z,7.41
2023-01-26T21:44:17.870Z,7.42
2023-01-26T21:46:47.053Z,7.37
2023-01-26T21:49:15.569Z,7.33
2023-01-26T21:52:02.994Z,7.39
2023-01-26T21:54:32.126Z,7.33
2023-01-26T21:57:00.808Z,7.22
2023-01-26T21:59:29.604Z,7.06
2023-01-26T22:01:58.156Z,7.17
2023-01-26T22:04:29.018Z,7.00
2023-01-26T22:06:57.536Z,6.96
2023-01-26T22:09:25.660Z,6.95
2023-01-26T22:11:53.291Z,6.98
2023-01-26T22:14:23.560Z,6.92
2023-01-26T22:16:51.673Z,7.02
2023-01-26T22:19:19.613Z,6.90
2023-01-26T22:21:48.609Z,6.99
2023-01-26T22:24:17.990Z,6.94
2023-01-26T22:26:45.597Z,6.89
2023-01-26T22:29:13.620Z,6.62
2023-01-26T22:31:41.862Z,6.67
2023-01-26T22:34:11.391Z,6.60
2023-01-26T22:36:40.243Z,6.49
2023-01-26T22:39:09.103Z,6.57
2023-01-26T22:41:37.849Z,6.67
2023-01-26T22:44:05.703Z,6.84
2023-01-26T22:46:33.315Z,6.69
2023-01-26T22:49:00.916Z,6.56
2023-01-26T22:51:31.057Z,6.61
2023-01-26T22:53:59.438Z,6.67
2023-01-26T22:56:27.327Z,6.39
2023-01-26T22:58:59.821Z,6.51
2023-01-26T23:01:29.993Z,6.35
2023-01-26T23:03:58.648Z,6.37
2023-01-26T23:06:26.825Z,6.44
2023-01-26T23:08:54.770Z,6.60
2023-01-26T23:11:25.440Z,6.47
2023-01-26T23:13:54.905Z,6.49
2023-01-26T23:16:23.846Z,6.43
2023-01-26T23:18:53.801Z,6.33
2023-01-26T23:21:21.427Z,6.33
2023-01-26T23:23:48.975Z,6.62
2023-01-26T23:26:17.576Z,6.68
2023-01-26T23:28:45.660Z,6.58
2023-01-26T23:31:15.480Z,6.44
2023-01-26T23:33:43.607Z,6.23
2023-01-26T23:36:13.778Z,6.27
2023-01-26T23:38:43.935Z,6.38
2023-01-26T23:41:12.200Z,6.44
2023-01-26T23:43:39.953Z,6.40
2023-01-26T23:46:09.569Z,6.56
2023-01-26T23:48:37.830Z,6.30
2023-01-26T23:51:08.655Z,6.35
2023-01-26T23:53:36.125Z,6.51
2023-01-26T23:56:07.827Z,6.22
2023-01-26T23:58:37.209Z,6.28
